sensor_id;sensor_type;location;lat;lon;timestamp;P1;durP1;ratioP1;P2;durP2;ratioP2
51612;SDS011;37694;51.748;14.326;2023-05-17T00:01:48;5.75;;;5.15;;
51612;SDS011;37694;51.748;14.326;2023-05-17T00:04:14;6.53;;;5.75;;
51612;SDS011;37694;51.748;14.326;2023-05-17T00:06:40;6.25;;;5.65;;
51612;SDS011;37694;51.748;14.326;2023-05-17T00:09:06;6.00;;;5.10;;
51612;SDS011;37694;51.748;14.326;2023-05-17T00:11:32;5.95;;;5.35;;
51612;SDS011;37694;51.748;14.326;2023-05-17T00:13:57;6.78;;;5.53;;
51612;SDS011;37694;51.748;14.326;2023-05-17T00:16:23;6.00;;;5.43;;
51612;SDS011;37694;51.748;14.326;2023-05-17T00:18:49;5.75;;;5.13;;
51612;SDS011;37694;51.748;14.326;2023-05-17T00:21:14;5.47;;;4.97;;
51612;SDS011;37694;51.748;14.326;2023-05-17T00:23:40;5.97;;;5.22;;
51612;SDS011;37694;51.748;14.326;2023-05-17T00:26:06;5.45;;;4.95;;
51612;SDS011;37694;51.748;14.326;2023-05-17T00:28:31;6.70;;;5.57;;
51612;SDS011;37694;51.748;14.326;2023-05-17T00:30:57;5.70;;;5.20;;
51612;SDS011;37694;51.748;14.326;2023-05-17T00:33:23;6.03;;;5.43;;
51612;SDS011;37694;51.748;14.326;2023-05-17T00:35:48;5.97;;;5.40;;
51612;SDS011;37694;51.748;14.326;2023-05-17T00:38:14;6.53;;;5.30;;
51612;SDS011;37694;51.748;14.326;2023-05-17T00:40:39;5.55;;;5.05;;
51612;SDS011;37694;51.748;14.326;2023-05-17T00:43:05;5.95;;;5.35;;
51612;SDS011;37694;51.748;14.326;2023-05-17T00:45:31;6.25;;;5.07;;
51612;SDS011;37694;51.748;14.326;2023-05-17T00:47:56;5.78;;;4.97;;
51612;SDS011;37694;51.748;14.326;2023-05-17T00:50:22;6.80;;;5.88;;
51612;SDS011;37694;51.748;14.326;2023-05-17T00:52:48;5.35;;;4.85;;
51612;SDS011;37694;51.748;14.326;2023-05-17T00:55:13;6.57;;;5.65;;
51612;SDS011;37694;51.748;14.326;2023-05-17T00:57:39;7.70;;;5.38;;
51612;SDS011;37694;51.748;14.326;2023-05-17T01:00:05;5.53;;;5.03;;
51612;SDS011;37694;51.748;14.326;2023-05-17T01:02:32;6.72;;;5.28;;
51612;SDS011;37694;51.748;14.326;2023-05-17T01:04:58;6.55;;;5.32;;
51612;SDS011;37694;51.748;14.326;2023-05-17T01:07:24;6.72;;;5.43;;
51612;SDS011;37694;51.748;14.326;2023-05-17T01:09:50;5.53;;;5.03;;
51612;SDS011;37694;51.748;14.326;2023-05-17T01:15:27;6.82;;;5.45;;
51612;SDS011;37694;51.748;14.326;2023-05-17T01:20:44;5.82;;;5.22;;
51612;SDS011;37694;51.748;14.326;2023-05-17T01:26:28;5.72;;;5.05;;
51612;SDS011;37694;51.748;14.326;2023-05-17T01:28:58;6.30;;;5.70;;
51612;SDS011;37694;51.748;14.326;2023-05-17T01:31:24;5.68;;;5.07;;
51612;SDS011;37694;51.748;14.326;2023-05-17T01:33:51;5.43;;;4.93;;
51612;SDS011;37694;51.748;14.326;2023-05-17T01:36:17;5.80;;;5.28;;
51612;SDS011;37694;51.748;14.326;2023-05-17T01:38:42;5.28;;;4.72;;
51612;SDS011;37694;51.748;14.326;2023-05-17T01:44:04;5.88;;;5.20;;
51612;SDS011;37694;51.748;14.326;2023-05-17T01:46:57;6.18;;;5.20;;
51612;SDS011;37694;51.748;14.326;2023-05-17T01:49:31;5.82;;;5.22;;
51612;SDS011;37694;51.748;14.326;2023-05-17T01:52:04;5.18;;;4.65;;
51612;SDS011;37694;51.748;14.326;2023-05-17T01:54:37;5.63;;;4.85;;
51612;SDS011;37694;51.748;14.326;2023-05-17T01:57:09;5.05;;;4.55;;
51612;SDS011;37694;51.748;14.326;2023-05-17T01:59:37;5.13;;;4.63;;
51612;SDS011;37694;51.748;14.326;2023-05-17T02:02:03;6.22;;;4.85;;
51612;SDS011;37694;51.748;14.326;2023-05-17T02:04:33;7.30;;;4.88;;
51612;SDS011;37694;51.748;14.326;2023-05-17T02:07:00;5.80;;;5.20;;
51612;SDS011;37694;51.748;14.326;2023-05-17T02:09:28;4.63;;;4.22;;
51612;SDS011;37694;51.748;14.326;2023-05-17T02:11:55;4.82;;;4.43;;
51612;SDS011;37694;51.748;14.326;2023-05-17T02:14:21;5.90;;;4.43;;
51612;SDS011;37694;51.748;14.326;2023-05-17T02:16:46;7.25;;;5.13;;
51612;SDS011;37694;51.748;14.326;2023-05-17T02:19:12;5.47;;;4.88;;
51612;SDS011;37694;51.748;14.326;2023-05-17T02:21:39;5.38;;;4.88;;
51612;SDS011;37694;51.748;14.326;2023-05-17T02:24:04;5.53;;;4.70;;
51612;SDS011;37694;51.748;14.326;2023-05-17T02:26:30;5.38;;;4.25;;
51612;SDS011;37694;51.748;14.326;2023-05-17T02:28:56;7.10;;;4.80;;
51612;SDS011;37694;51.748;14.326;2023-05-17T02:31:23;4.93;;;4.43;;
51612;SDS011;37694;51.748;14.326;2023-05-17T02:33:51;5.78;;;4.97;;
51612;SDS011;37694;51.748;14.326;2023-05-17T02:36:17;4.68;;;4.28;;
51612;SDS011;37694;51.748;14.326;2023-05-17T02:38:43;5.60;;;4.70;;
51612;SDS011;37694;51.748;14.326;2023-05-17T02:41:08;7.32;;;5.03;;
51612;SDS011;37694;51.748;14.326;2023-05-17T02:43:34;5.20;;;4.70;;
51612;SDS011;37694;51.748;14.326;2023-05-17T02:46:00;5.05;;;4.50;;
51612;SDS011;37694;51.748;14.326;2023-05-17T02:48:25;5.78;;;4.70;;
51612;SDS011;37694;51.748;14.326;2023-05-17T02:50:51;5.25;;;4.65;;
51612;SDS011;37694;51.748;14.326;2023-05-17T02:53:16;4.60;;;4.18;;
51612;SDS011;37694;51.748;14.326;2023-05-17T02:55:42;6.22;;;4.60;;
51612;SDS011;37694;51.748;14.326;2023-05-17T02:58:08;5.50;;;4.45;;
51612;SDS011;37694;51.748;14.326;2023-05-17T03:00:33;5.97;;;5.03;;
51612;SDS011;37694;51.748;14.326;2023-05-17T03:02:59;4.75;;;4.25;;
51612;SDS011;37694;51.748;14.326;2023-05-17T03:05:25;5.10;;;4.60;;
51612;SDS011;37694;51.748;14.326;2023-05-17T03:07:51;4.63;;;4.13;;
51612;SDS011;37694;51.748;14.326;2023-05-17T03:10:17;4.88;;;4.38;;
51612;SDS011;37694;51.748;14.326;2023-05-17T03:12:42;4.20;;;3.80;;
51612;SDS011;37694;51.748;14.326;2023-05-17T03:15:08;4.97;;;4.47;;
51612;SDS011;37694;51.748;14.326;2023-05-17T03:17:34;5.22;;;4.10;;
51612;SDS011;37694;51.748;14.326;2023-05-17T03:20:00;4.97;;;4.47;;
51612;SDS011;37694;51.748;14.326;2023-05-17T03:22:26;4.53;;;4.13;;
51612;SDS011;37694;51.748;14.326;2023-05-17T03:24:52;5.05;;;4.30;;
51612;SDS011;37694;51.748;14.326;2023-05-17T03:27:17;4.25;;;3.85;;
51612;SDS011;37694;51.748;14.326;2023-05-17T03:29:43;4.50;;;3.90;;
51612;SDS011;37694;51.748;14.326;2023-05-17T03:32:09;4.63;;;4.22;;
51612;SDS011;37694;51.748;14.326;2023-05-17T03:34:34;5.03;;;4.45;;
51612;SDS011;37694;51.748;14.326;2023-05-17T03:37:00;4.43;;;4.03;;
51612;SDS011;37694;51.748;14.326;2023-05-17T03:39:26;4.47;;;4.00;;
51612;SDS011;37694;51.748;14.326;2023-05-17T03:41:51;4.43;;;4.03;;
51612;SDS011;37694;51.748;14.326;2023-05-17T03:44:17;4.70;;;4.22;;
51612;SDS011;37694;51.748;14.326;2023-05-17T03:46:43;4.05;;;3.75;;
51612;SDS011;37694;51.748;14.326;2023-05-17T03:49:08;4.75;;;3.83;;
51612;SDS011;37694;51.748;14.326;2023-05-17T03:51:34;6.38;;;4.25;;
51612;SDS011;37694;51.748;14.326;2023-05-17T03:54:00;4.25;;;3.90;;
51612;SDS011;37694;51.748;14.326;2023-05-17T03:56:25;4.75;;;4.03;;
51612;SDS011;37694;51.748;14.326;2023-05-17T03:58:51;4.10;;;3.70;;
51612;SDS011;37694;51.748;14.326;2023-05-17T04:01:17;4.30;;;3.90;;
51612;SDS011;37694;51.748;14.326;2023-05-17T04:03:44;5.32;;;4.10;;
51612;SDS011;37694;51.748;14.326;2023-05-17T04:06:11;4.50;;;4.05;;
51612;SDS011;37694;51.748;14.326;2023-05-17T04:08:37;4.20;;;3.80;;
51612;SDS011;37694;51.748;14.326;2023-05-17T04:11:03;4.53;;;4.13;;
51612;SDS011;37694;51.748;14.326;2023-05-17T04:13:37;4.20;;;3.80;;
51612;SDS011;37694;51.748;14.326;2023-05-17T04:16:07;5.05;;;4.28;;
51612;SDS011;37694;51.748;14.326;2023-05-17T04:18:36;5.38;;;3.90;;
51612;SDS011;37694;51.748;14.326;2023-05-17T04:21:03;4.57;;;3.80;;
51612;SDS011;37694;51.748;14.326;2023-05-17T04:23:30;4.30;;;3.90;;
51612;SDS011;37694;51.748;14.326;2023-05-17T04:25:58;4.60;;;4.18;;
51612;SDS011;37694;51.748;14.326;2023-05-17T04:28:24;4.30;;;3.90;;
51612;SDS011;37694;51.748;14.326;2023-05-17T04:30:51;4.25;;;3.85;;
51612;SDS011;37694;51.748;14.326;2023-05-17T04:33:17;4.03;;;3.35;;
51612;SDS011;37694;51.748;14.326;2023-05-17T04:35:44;3.58;;;3.28;;
51612;SDS011;37694;51.748;14.326;2023-05-17T04:38:10;4.18;;;3.75;;
51612;SDS011;37694;51.748;14.326;2023-05-17T04:40:36;4.43;;;3.95;;
51612;SDS011;37694;51.748;14.326;2023-05-17T04:43:02;3.83;;;3.40;;
51612;SDS011;37694;51.748;14.326;2023-05-17T04:45:27;4.28;;;3.80;;
51612;SDS011;37694;51.748;14.326;2023-05-17T04:47:53;4.20;;;3.70;;
51612;SDS011;37694;51.748;14.326;2023-05-17T04:50:19;4.00;;;3.60;;
51612;SDS011;37694;51.748;14.326;2023-05-17T04:52:45;3.67;;;3.38;;
51612;SDS011;37694;51.748;14.326;2023-05-17T04:55:11;3.78;;;3.47;;
51612;SDS011;37694;51.748;14.326;2023-05-17T04:57:37;4.25;;;3.67;;
51612;SDS011;37694;51.748;14.326;2023-05-17T05:00:03;4.97;;;3.90;;
51612;SDS011;37694;51.748;14.326;2023-05-17T05:02:34;4.70;;;3.95;;
51612;SDS011;37694;51.748;14.326;2023-05-17T05:05:00;4.53;;;3.55;;
51612;SDS011;37694;51.748;14.326;2023-05-17T05:07:25;4.50;;;3.75;;
51612;SDS011;37694;51.748;14.326;2023-05-17T05:09:51;4.95;;;3.67;;
51612;SDS011;37694;51.748;14.326;2023-05-17T05:12:17;3.80;;;3.30;;
51612;SDS011;37694;51.748;14.326;2023-05-17T05:14:43;3.90;;;3.50;;
51612;SDS011;37694;51.748;14.326;2023-05-17T05:17:08;3.60;;;3.20;;
51612;SDS011;37694;51.748;14.326;2023-05-17T05:19:34;3.47;;;3.17;;
51612;SDS011;37694;51.748;14.326;2023-05-17T05:22:00;4.07;;;3.67;;
51612;SDS011;37694;51.748;14.326;2023-05-17T05:24:26;3.90;;;3.28;;
51612;SDS011;37694;51.748;14.326;2023-05-17T05:26:51;4.03;;;3.35;;
51612;SDS011;37694;51.748;14.326;2023-05-17T05:29:17;3.33;;;3.03;;
51612;SDS011;37694;51.748;14.326;2023-05-17T05:31:43;4.00;;;3.60;;
51612;SDS011;37694;51.748;14.326;2023-05-17T05:34:09;4.03;;;3.63;;
51612;SDS011;37694;51.748;14.326;2023-05-17T05:36:35;4.07;;;3.33;;
51612;SDS011;37694;51.748;14.326;2023-05-17T05:39:00;4.68;;;3.50;;
51612;SDS011;37694;51.748;14.326;2023-05-17T05:41:27;3.75;;;3.38;;
51612;SDS011;37694;51.748;14.326;2023-05-17T05:43:53;3.70;;;3.20;;
51612;SDS011;37694;51.748;14.326;2023-05-17T05:46:18;5.35;;;3.67;;
51612;SDS011;37694;51.748;14.326;2023-05-17T05:48:44;5.32;;;3.22;;
51612;SDS011;37694;51.748;14.326;2023-05-17T05:51:10;3.72;;;3.22;;
51612;SDS011;37694;51.748;14.326;2023-05-17T05:53:36;3.60;;;3.30;;
51612;SDS011;37694;51.748;14.326;2023-05-17T05:56:02;3.75;;;3.45;;
51612;SDS011;37694;51.748;14.326;2023-05-17T05:58:28;3.55;;;3.20;;
51612;SDS011;37694;51.748;14.326;2023-05-17T06:00:55;3.80;;;3.38;;
51612;SDS011;37694;51.748;14.326;2023-05-17T06:03:21;4.55;;;3.70;;
51612;SDS011;37694;51.748;14.326;2023-05-17T06:05:48;4.28;;;3.20;;
51612;SDS011;37694;51.748;14.326;2023-05-17T06:08:13;3.55;;;3.25;;
51612;SDS011;37694;51.748;14.326;2023-05-17T06:10:39;3.47;;;3.17;;
51612;SDS011;37694;51.748;14.326;2023-05-17T06:13:05;3.60;;;3.30;;
51612;SDS011;37694;51.748;14.326;2023-05-17T06:15:31;4.07;;;2.92;;
51612;SDS011;37694;51.748;14.326;2023-05-17T06:17:56;3.63;;;3.25;;
51612;SDS011;37694;51.748;14.326;2023-05-17T06:20:22;3.40;;;3.10;;
51612;SDS011;37694;51.748;14.326;2023-05-17T06:22:48;3.95;;;3.45;;
51612;SDS011;37694;51.748;14.326;2023-05-17T06:25:13;4.93;;;3.40;;
51612;SDS011;37694;51.748;14.326;2023-05-17T06:27:39;3.38;;;3.00;;
51612;SDS011;37694;51.748;14.326;2023-05-17T06:30:05;2.85;;;2.65;;
51612;SDS011;37694;51.748;14.326;2023-05-17T06:32:31;4.32;;;2.97;;
51612;SDS011;37694;51.748;14.326;2023-05-17T06:34:57;3.63;;;3.15;;
51612;SDS011;37694;51.748;14.326;2023-05-17T06:37:23;4.10;;;3.47;;
51612;SDS011;37694;51.748;14.326;2023-05-17T06:39:51;3.28;;;2.95;;
51612;SDS011;37694;51.748;14.326;2023-05-17T06:42:17;3.38;;;3.08;;
51612;SDS011;37694;51.748;14.326;2023-05-17T06:44:43;4.72;;;3.65;;
51612;SDS011;37694;51.748;14.326;2023-05-17T06:47:09;4.18;;;3.65;;
51612;SDS011;37694;51.748;14.326;2023-05-17T06:49:35;6.45;;;3.42;;
51612;SDS011;37694;51.748;14.326;2023-05-17T06:52:02;4.47;;;3.50;;
51612;SDS011;37694;51.748;14.326;2023-05-17T06:54:29;5.35;;;3.60;;
51612;SDS011;37694;51.748;14.326;2023-05-17T06:57:01;3.53;;;3.22;;
51612;SDS011;37694;51.748;14.326;2023-05-17T06:59:28;4.07;;;3.10;;
51612;SDS011;37694;51.748;14.326;2023-05-17T07:01:54;5.15;;;3.53;;
51612;SDS011;37694;51.748;14.326;2023-05-17T07:04:20;3.65;;;3.35;;
51612;SDS011;37694;51.748;14.326;2023-05-17T07:06:45;3.78;;;3.15;;
51612;SDS011;37694;51.748;14.326;2023-05-17T07:09:11;4.47;;;3.15;;
51612;SDS011;37694;51.748;14.326;2023-05-17T07:11:37;3.78;;;3.17;;
51612;SDS011;37694;51.748;14.326;2023-05-17T07:14:03;3.58;;;3.28;;
51612;SDS011;37694;51.748;14.326;2023-05-17T07:16:29;4.45;;;3.55;;
51612;SDS011;37694;51.748;14.326;2023-05-17T07:18:56;4.05;;;3.17;;
51612;SDS011;37694;51.748;14.326;2023-05-17T07:21:21;3.50;;;3.20;;
51612;SDS011;37694;51.748;14.326;2023-05-17T07:23:48;3.90;;;3.50;;
51612;SDS011;37694;51.748;14.326;2023-05-17T07:26:14;5.22;;;3.47;;
51612;SDS011;37694;51.748;14.326;2023-05-17T07:28:43;5.20;;;3.17;;
51612;SDS011;37694;51.748;14.326;2023-05-17T07:31:08;3.75;;;2.85;;
51612;SDS011;37694;51.748;14.326;2023-05-17T07:33:35;3.13;;;2.70;;
51612;SDS011;37694;51.748;14.326;2023-05-17T07:36:02;5.93;;;3.25;;
51612;SDS011;37694;51.748;14.326;2023-05-17T07:38:28;3.85;;;3.25;;
51612;SDS011;37694;51.748;14.326;2023-05-17T07:40:53;4.07;;;3.00;;
51612;SDS011;37694;51.748;14.326;2023-05-17T07:43:19;3.55;;;3.25;;
51612;SDS011;37694;51.748;14.326;2023-05-17T07:45:45;4.07;;;3.50;;
51612;SDS011;37694;51.748;14.326;2023-05-17T07:48:11;3.55;;;3.25;;
51612;SDS011;37694;51.748;14.326;2023-05-17T07:50:37;3.90;;;3.30;;
51612;SDS011;37694;51.748;14.326;2023-05-17T07:53:03;2.78;;;2.58;;
51612;SDS011;37694;51.748;14.326;2023-05-17T07:55:28;4.60;;;3.10;;
51612;SDS011;37694;51.748;14.326;2023-05-17T07:57:54;3.75;;;2.90;;
51612;SDS011;37694;51.748;14.326;2023-05-17T08:00:20;3.95;;;3.38;;
51612;SDS011;37694;51.748;14.326;2023-05-17T08:02:46;4.22;;;3.33;;
51612;SDS011;37694;51.748;14.326;2023-05-17T08:05:12;2.67;;;2.45;;
51612;SDS011;37694;51.748;14.326;2023-05-17T08:07:38;3.80;;;3.22;;
51612;SDS011;37694;51.748;14.326;2023-05-17T08:10:04;4.13;;;3.67;;
51612;SDS011;37694;51.748;14.326;2023-05-17T08:12:30;4.05;;;3.33;;
51612;SDS011;37694;51.748;14.326;2023-05-17T08:14:56;3.45;;;3.03;;
51612;SDS011;37694;51.748;14.326;2023-05-17T08:17:21;4.57;;;3.45;;
51612;SDS011;37694;51.748;14.326;2023-05-17T08:19:47;3.50;;;2.88;;
51612;SDS011;37694;51.748;14.326;2023-05-17T08:22:13;3.75;;;3.35;;
51612;SDS011;37694;51.748;14.326;2023-05-17T08:24:39;3.60;;;3.25;;
51612;SDS011;37694;51.748;14.326;2023-05-17T08:27:05;3.75;;;2.80;;
51612;SDS011;37694;51.748;14.326;2023-05-17T08:29:31;4.18;;;3.30;;
51612;SDS011;37694;51.748;14.326;2023-05-17T08:31:57;3.67;;;3.35;;
51612;SDS011;37694;51.748;14.326;2023-05-17T08:34:22;4.85;;;3.28;;
51612;SDS011;37694;51.748;14.326;2023-05-17T08:36:48;3.45;;;2.85;;
51612;SDS011;37694;51.748;14.326;2023-05-17T08:39:14;3.28;;;2.97;;
51612;SDS011;37694;51.748;14.326;2023-05-17T08:41:40;5.43;;;3.30;;
51612;SDS011;37694;51.748;14.326;2023-05-17T08:44:05;4.43;;;3.17;;
51612;SDS011;37694;51.748;14.326;2023-05-17T08:46:32;3.60;;;2.78;;
51612;SDS011;37694;51.748;14.326;2023-05-17T08:49:00;3.15;;;2.83;;
51612;SDS011;37694;51.748;14.326;2023-05-17T08:51:29;4.65;;;3.33;;
51612;SDS011;37694;51.748;14.326;2023-05-17T08:53:56;3.33;;;3.03;;
51612;SDS011;37694;51.748;14.326;2023-05-17T08:56:22;3.70;;;3.30;;
51612;SDS011;37694;51.748;14.326;2023-05-17T08:58:51;4.25;;;3.10;;
51612;SDS011;37694;51.748;14.326;2023-05-17T09:01:20;2.75;;;2.55;;
51612;SDS011;37694;51.748;14.326;2023-05-17T09:03:48;3.80;;;3.13;;
51612;SDS011;37694;51.748;14.326;2023-05-17T09:06:15;4.97;;;3.25;;
51612;SDS011;37694;51.748;14.326;2023-05-17T09:08:42;4.55;;;2.80;;
51612;SDS011;37694;51.748;14.326;2023-05-17T09:11:08;3.88;;;3.42;;
51612;SDS011;37694;51.748;14.326;2023-05-17T09:13:34;3.65;;;2.80;;
51612;SDS011;37694;51.748;14.326;2023-05-17T09:16:01;4.03;;;3.35;;
51612;SDS011;37694;51.748;14.326;2023-05-17T09:18:29;4.72;;;3.53;;
51612;SDS011;37694;51.748;14.326;2023-05-17T09:21:00;3.47;;;3.17;;
51612;SDS011;37694;51.748;14.326;2023-05-17T09:23:27;3.63;;;2.95;;
51612;SDS011;37694;51.748;14.326;2023-05-17T09:26:02;4.10;;;3.13;;
51612;SDS011;37694;51.748;14.326;2023-05-17T09:28:37;4.82;;;3.20;;
51612;SDS011;37694;51.748;14.326;2023-05-17T09:31:08;3.83;;;3.42;;
51612;SDS011;37694;51.748;14.326;2023-05-17T09:33:47;6.43;;;3.58;;
51612;SDS011;37694;51.748;14.326;2023-05-17T09:36:22;3.75;;;3.13;;
51612;SDS011;37694;51.748;14.326;2023-05-17T09:38:55;4.38;;;3.22;;
51612;SDS011;37694;51.748;14.326;2023-05-17T09:41:29;3.58;;;3.28;;
51612;SDS011;37694;51.748;14.326;2023-05-17T09:44:06;4.38;;;3.40;;
51612;SDS011;37694;51.748;14.326;2023-05-17T09:46:33;4.50;;;3.42;;
51612;SDS011;37694;51.748;14.326;2023-05-17T09:49:00;3.75;;;2.83;;
51612;SDS011;37694;51.748;14.326;2023-05-17T09:51:49;3.63;;;2.92;;
51612;SDS011;37694;51.748;14.326;2023-05-17T09:54:15;4.43;;;2.97;;
51612;SDS011;37694;51.748;14.326;2023-05-17T09:56:44;4.10;;;2.80;;
51612;SDS011;37694;51.748;14.326;2023-05-17T09:59:18;3.92;;;3.03;;
51612;SDS011;37694;51.748;14.326;2023-05-17T10:01:44;4.15;;;3.70;;
51612;SDS011;37694;51.748;14.326;2023-05-17T10:04:14;5.15;;;3.72;;
51612;SDS011;37694;51.748;14.326;2023-05-17T10:06:44;3.13;;;2.83;;
51612;SDS011;37694;51.748;14.326;2023-05-17T10:09:11;3.75;;;2.90;;
51612;SDS011;37694;51.748;14.326;2023-05-17T10:11:37;4.15;;;3.13;;
51612;SDS011;37694;51.748;14.326;2023-05-17T10:14:18;3.78;;;3.28;;
51612;SDS011;37694;51.748;14.326;2023-05-17T10:16:51;3.83;;;2.88;;
51612;SDS011;37694;51.748;14.326;2023-05-17T10:19:18;4.65;;;3.28;;
51612;SDS011;37694;51.748;14.326;2023-05-17T10:21:46;3.72;;;3.15;;
51612;SDS011;37694;51.748;14.326;2023-05-17T10:24:12;4.40;;;2.95;;
51612;SDS011;37694;51.748;14.326;2023-05-17T10:26:40;4.30;;;3.08;;
51612;SDS011;37694;51.748;14.326;2023-05-17T10:29:06;5.30;;;3.17;;
51612;SDS011;37694;51.748;14.326;2023-05-17T10:31:33;3.60;;;3.30;;
51612;SDS011;37694;51.748;14.326;2023-05-17T10:34:00;3.92;;;3.28;;
51612;SDS011;37694;51.748;14.326;2023-05-17T10:36:28;3.65;;;3.00;;
51612;SDS011;37694;51.748;14.326;2023-05-17T10:38:54;3.05;;;2.83;;
51612;SDS011;37694;51.748;14.326;2023-05-17T10:41:21;3.00;;;2.70;;
51612;SDS011;37694;51.748;14.326;2023-05-17T10:43:50;4.25;;;3.28;;
51612;SDS011;37694;51.748;14.326;2023-05-17T10:46:17;4.55;;;3.28;;
51612;SDS011;37694;51.748;14.326;2023-05-17T10:48:50;3.47;;;2.90;;
51612;SDS011;37694;51.748;14.326;2023-05-17T10:51:21;3.42;;;3.13;;
51612;SDS011;37694;51.748;14.326;2023-05-17T10:54:10;3.15;;;2.85;;
51612;SDS011;37694;51.748;14.326;2023-05-17T10:56:40;4.05;;;3.33;;
51612;SDS011;37694;51.748;14.326;2023-05-17T11:02:03;3.60;;;2.80;;
51612;SDS011;37694;51.748;14.326;2023-05-17T11:09:48;4.40;;;3.05;;
51612;SDS011;37694;51.748;14.326;2023-05-17T11:12:27;5.20;;;3.25;;
51612;SDS011;37694;51.748;14.326;2023-05-17T11:14:54;3.45;;;3.15;;
51612;SDS011;37694;51.748;14.326;2023-05-17T11:17:23;3.30;;;2.78;;
51612;SDS011;37694;51.748;14.326;2023-05-17T11:22:26;3.15;;;2.53;;
51612;SDS011;37694;51.748;14.326;2023-05-17T11:24:56;3.63;;;2.85;;
51612;SDS011;37694;51.748;14.326;2023-05-17T11:27:22;2.90;;;2.70;;
51612;SDS011;37694;51.748;14.326;2023-05-17T11:29:57;2.95;;;2.53;;
51612;SDS011;37694;51.748;14.326;2023-05-17T11:32:31;4.53;;;3.13;;
51612;SDS011;37694;51.748;14.326;2023-05-17T11:35:00;2.80;;;2.33;;
51612;SDS011;37694;51.748;14.326;2023-05-17T11:37:26;3.50;;;3.08;;
51612;SDS011;37694;51.748;14.326;2023-05-17T11:40:00;3.30;;;3.00;;
51612;SDS011;37694;51.748;14.326;2023-05-17T11:42:30;3.67;;;3.00;;
51612;SDS011;37694;51.748;14.326;2023-05-17T11:44:57;4.40;;;3.30;;
51612;SDS011;37694;51.748;14.326;2023-05-17T11:47:25;3.38;;;2.88;;
51612;SDS011;37694;51.748;14.326;2023-05-17T11:49:52;5.00;;;3.22;;
51612;SDS011;37694;51.748;14.326;2023-05-17T11:52:19;5.85;;;3.05;;
51612;SDS011;37694;51.748;14.326;2023-05-17T11:54:45;3.28;;;2.65;;
51612;SDS011;37694;51.748;14.326;2023-05-17T11:57:13;2.63;;;2.28;;
51612;SDS011;37694;51.748;14.326;2023-05-17T11:59:41;4.15;;;3.10;;
51612;SDS011;37694;51.748;14.326;2023-05-17T12:02:09;4.72;;;3.05;;
51612;SDS011;37694;51.748;14.326;2023-05-17T12:04:49;3.67;;;2.92;;
51612;SDS011;37694;51.748;14.326;2023-05-17T12:07:15;4.38;;;2.92;;
51612;SDS011;37694;51.748;14.326;2023-05-17T12:09:43;3.75;;;2.45;;
51612;SDS011;37694;51.748;14.326;2023-05-17T12:12:09;1.95;;;1.85;;
51612;SDS011;37694;51.748;14.326;2023-05-17T12:14:35;2.88;;;2.15;;
51612;SDS011;37694;51.748;14.326;2023-05-17T12:17:02;2.53;;;2.08;;
51612;SDS011;37694;51.748;14.326;2023-05-17T12:19:30;2.80;;;2.03;;
51612;SDS011;37694;51.748;14.326;2023-05-17T12:22:06;2.40;;;1.90;;
51612;SDS011;37694;51.748;14.326;2023-05-17T12:24:39;2.22;;;1.70;;
51612;SDS011;37694;51.748;14.326;2023-05-17T12:29:32;2.67;;;1.88;;
51612;SDS011;37694;51.748;14.326;2023-05-17T12:31:58;1.92;;;1.80;;
51612;SDS011;37694;51.748;14.326;2023-05-17T12:34:25;1.75;;;1.45;;
51612;SDS011;37694;51.748;14.326;2023-05-17T12:36:55;1.52;;;1.42;;
51612;SDS011;37694;51.748;14.326;2023-05-17T12:39:21;2.13;;;1.58;;
51612;SDS011;37694;51.748;14.326;2023-05-17T12:41:48;2.35;;;1.40;;
51612;SDS011;37694;51.748;14.326;2023-05-17T12:44:18;1.58;;;1.48;;
51612;SDS011;37694;51.748;14.326;2023-05-17T12:46:45;1.58;;;1.48;;
51612;SDS011;37694;51.748;14.326;2023-05-17T12:49:17;1.73;;;1.35;;
51612;SDS011;37694;51.748;14.326;2023-05-17T12:51:45;1.60;;;1.50;;
51612;SDS011;37694;51.748;14.326;2023-05-17T12:54:13;2.03;;;1.13;;
51612;SDS011;37694;51.748;14.326;2023-05-17T12:56:48;1.38;;;1.27;;
51612;SDS011;37694;51.748;14.326;2023-05-17T12:59:17;1.20;;;1.10;;
51612;SDS011;37694;51.748;14.326;2023-05-17T13:01:48;1.23;;;1.13;;
51612;SDS011;37694;51.748;14.326;2023-05-17T13:04:19;1.35;;;1.20;;
51612;SDS011;37694;51.748;14.326;2023-05-17T13:06:53;1.20;;;0.98;;
51612;SDS011;37694;51.748;14.326;2023-05-17T13:09:22;1.50;;;1.33;;
51612;SDS011;37694;51.748;14.326;2023-05-17T13:19:36;1.40;;;1.30;;
51612;SDS011;37694;51.748;14.326;2023-05-17T13:22:03;1.35;;;0.98;;
51612;SDS011;37694;51.748;14.326;2023-05-17T13:24:30;1.70;;;1.60;;
51612;SDS011;37694;51.748;14.326;2023-05-17T13:26:58;2.15;;;1.70;;
51612;SDS011;37694;51.748;14.326;2023-05-17T13:29:24;1.60;;;1.35;;
51612;SDS011;37694;51.748;14.326;2023-05-17T13:31:50;2.33;;;1.40;;
51612;SDS011;37694;51.748;14.326;2023-05-17T13:34:16;1.40;;;1.30;;
51612;SDS011;37694;51.748;14.326;2023-05-17T13:36:44;1.20;;;1.17;;
51612;SDS011;37694;51.748;14.326;2023-05-17T13:39:10;1.48;;;1.35;;
51612;SDS011;37694;51.748;14.326;2023-05-17T13:41:36;1.40;;;1.30;;
51612;SDS011;37694;51.748;14.326;2023-05-17T13:44:03;1.70;;;1.58;;
51612;SDS011;37694;51.748;14.326;2023-05-17T13:46:29;2.10;;;1.45;;
51612;SDS011;37694;51.748;14.326;2023-05-17T13:48:55;1.60;;;1.50;;
51612;SDS011;37694;51.748;14.326;2023-05-17T13:51:21;1.65;;;1.20;;
51612;SDS011;37694;51.748;14.326;2023-05-17T13:53:47;1.48;;;1.35;;
51612;SDS011;37694;51.748;14.326;2023-05-17T13:56:12;2.97;;;1.45;;
51612;SDS011;37694;51.748;14.326;2023-05-17T13:58:38;1.50;;;1.20;;
51612;SDS011;37694;51.748;14.326;2023-05-17T14:01:04;1.63;;;1.23;;
51612;SDS011;37694;51.748;14.326;2023-05-17T14:03:30;3.13;;;1.38;;
51612;SDS011;37694;51.748;14.326;2023-05-17T14:05:56;1.52;;;1.40;;
51612;SDS011;37694;51.748;14.326;2023-05-17T14:08:22;3.45;;;1.20;;
51612;SDS011;37694;51.748;14.326;2023-05-17T14:10:47;1.65;;;1.40;;
51612;SDS011;37694;51.748;14.326;2023-05-17T14:13:13;1.60;;;1.50;;
51612;SDS011;37694;51.748;14.326;2023-05-17T14:15:38;1.25;;;1.15;;
51612;SDS011;37694;51.748;14.326;2023-05-17T14:18:05;4.53;;;1.50;;
51612;SDS011;37694;51.748;14.326;2023-05-17T14:20:31;1.60;;;1.30;;
51612;SDS011;37694;51.748;14.326;2023-05-17T14:22:58;2.58;;;1.30;;
51612;SDS011;37694;51.748;14.326;2023-05-17T14:25:24;1.10;;;1.10;;
51612;SDS011;37694;51.748;14.326;2023-05-17T14:27:50;1.58;;;1.23;;
51612;SDS011;37694;51.748;14.326;2023-05-17T14:30:17;2.58;;;1.35;;
51612;SDS011;37694;51.748;14.326;2023-05-17T14:32:43;2.85;;;1.75;;
51612;SDS011;37694;51.748;14.326;2023-05-17T14:35:09;1.40;;;1.30;;
51612;SDS011;37694;51.748;14.326;2023-05-17T14:37:35;3.88;;;1.98;;
51612;SDS011;37694;51.748;14.326;2023-05-17T14:40:01;1.60;;;1.38;;
51612;SDS011;37694;51.748;14.326;2023-05-17T14:42:27;1.90;;;1.35;;
51612;SDS011;37694;51.748;14.326;2023-05-17T14:44:54;1.52;;;1.42;;
51612;SDS011;37694;51.748;14.326;2023-05-17T14:47:20;1.52;;;1.27;;
51612;SDS011;37694;51.748;14.326;2023-05-17T14:49:46;2.88;;;1.23;;
51612;SDS011;37694;51.748;14.326;2023-05-17T14:52:12;2.25;;;1.60;;
51612;SDS011;37694;51.748;14.326;2023-05-17T14:54:38;1.63;;;1.20;;
51612;SDS011;37694;51.748;14.326;2023-05-17T14:57:06;1.63;;;1.40;;
51612;SDS011;37694;51.748;14.326;2023-05-17T14:59:32;2.13;;;1.15;;
51612;SDS011;37694;51.748;14.326;2023-05-17T15:01:59;1.83;;;1.50;;
51612;SDS011;37694;51.748;14.326;2023-05-17T15:04:25;1.38;;;1.27;;
51612;SDS011;37694;51.748;14.326;2023-05-17T15:06:51;2.42;;;1.15;;